createdAt,value
2019-03-02T00:00:37.803Z,98301.61
2019-03-02T00:03:07.424Z,98302.70
2019-03-02T00:05:37.438Z,98299.55
2019-03-02T00:11:58.404Z,98303.50
2019-03-02T00:31:48.692Z,98306.81
2019-03-02T00:34:18.593Z,98307.78
2019-03-02T00:36:51.083Z,98310.92
2019-03-02T00:39:20.144Z,98303.00
2019-03-02T00:53:12.107Z,98304.56
2019-03-02T00:55:42.099Z,98301.09
2019-03-02T00:58:13.021Z,98300.92
2019-03-02T01:00:43.989Z,98301.89
2019-03-02T01:16:29.390Z,98310.75
2019-03-02T01:26:20.649Z,98305.53
2019-03-02T01:35:50.497Z,98296.03
2019-03-02T01:53:00.217Z,98288.44
2019-03-02T01:55:31.174Z,98290.65
2019-03-02T02:51:16.193Z,98254.58
2019-03-02T03:41:56.485Z,98244.44
2019-03-02T03:44:27.759Z,98244.77
2019-03-02T03:47:00.804Z,98246.66
2019-03-02T03:53:14.014Z,98248.55
2019-03-02T04:10:26.081Z,98242.25
2019-03-02T04:12:52.907Z,98248.25
2019-03-02T04:19:20.673Z,98257.11
2019-03-02T04:28:51.988Z,98256.47
2019-03-02T04:31:22.004Z,98249.21
2019-03-02T04:33:51.947Z,98252.70
2019-03-02T04:36:21.945Z,98256.19
2019-03-02T04:52:38.558Z,98250.01
2019-03-02T05:12:15.827Z,98261.56
2019-03-02T05:14:45.763Z,98257.73
2019-03-02T05:17:16.450Z,98257.25
2019-03-02T05:23:31.521Z,98248.56
2019-03-02T05:52:37.217Z,98244.77
2019-03-02T06:02:20.279Z,98246.36
2019-03-02T06:45:13.933Z,98238.32
2019-03-02T06:55:03.197Z,98234.55
2019-03-02T07:04:55.115Z,98232.68
2019-03-02T07:14:43.122Z,98228.78
2019-03-02T07:24:39.661Z,98232.59
2019-03-02T07:52:02.358Z,98226.58
2019-03-02T07:54:32.362Z,98228.33
2019-03-02T08:11:20.973Z,98222.39
2019-03-02T08:13:51.648Z,98222.52
2019-03-02T08:16:21.596Z,98223.91
2019-03-02T08:22:30.433Z,98218.78
2019-03-02T08:32:17.695Z,98214.02
2019-03-02T08:50:49.791Z,98204.63
2019-03-02T08:53:19.505Z,98191.52
2019-03-02T08:55:49.432Z,98192.98
2019-03-02T09:02:11.008Z,98192.95
2019-03-02T09:05:17.895Z,98196.78
2019-03-02T09:15:30.057Z,98191.44
2019-03-02T09:17:59.011Z,98195.02
2019-03-02T09:20:32.469Z,98197.03
2019-03-02T09:23:01.837Z,98194.80
2019-03-02T09:48:56.890Z,98180.06
2019-03-02T10:02:34.889Z,98182.02
2019-03-02T10:05:05.393Z,98174.14
2019-03-02T10:07:38.006Z,98176.72
2019-03-02T10:10:08.830Z,98177.34
2019-03-02T10:12:38.819Z,98178.16
2019-03-02T10:15:12.804Z,98180.93
2019-03-02T10:17:43.144Z,98181.98
2019-03-02T10:20:13.682Z,98182.88
2019-03-02T10:57:59.228Z,98187.58
2019-03-02T11:00:31.103Z,98198.77
2019-03-02T11:03:00.262Z,98197.86
2019-03-02T11:05:47.900Z,98194.47
2019-03-02T11:08:36.942Z,98197.78
2019-03-02T11:11:18.359Z,98199.41
2019-03-02T11:14:05.719Z,98191.69
2019-03-02T11:17:01.588Z,98187.77
2019-03-02T11:19:47.407Z,98177.88
2019-03-02T11:22:22.905Z,98187.87
2019-03-02T11:31:19.573Z,98178.70
2019-03-02T11:34:07.116Z,98172.50
2019-03-02T11:37:01.804Z,98171.98
2019-03-02T11:53:38.692Z,98165.91
2019-03-02T11:56:25.070Z,98165.94
2019-03-02T11:59:10.819Z,98166.40
2019-03-02T12:02:01.040Z,98164.01
2019-03-02T12:04:52.189Z,98166.70
2019-03-02T12:07:34.549Z,98169.73
2019-03-02T12:10:13.956Z,98169.57
2019-03-02T12:16:34.236Z,98158.59
2019-03-02T12:19:26.258Z,98153.27
2019-03-02T13:18:22.537Z,98090.85
2019-03-02T13:21:16.461Z,98094.42
2019-03-02T13:24:05.412Z,98083.59
2019-03-02T13:41:14.417Z,98066.33
2019-03-02T13:44:05.973Z,98066.30
2019-03-02T13:46:42.969Z,98072.05
2019-03-02T13:49:46.817Z,98062.22
2019-03-02T13:52:47.438Z,98064.40
2019-03-02T13:55:24.538Z,98067.28
2019-03-02T13:58:06.579Z,98067.80
2019-03-02T14:00:50.503Z,98064.14
2019-03-02T14:03:26.834Z,98064.63
2019-03-02T14:06:14.264Z,98071.41
2019-03-02T14:08:54.144Z,98066.70
2019-03-02T14:11:49.093Z,98060.13
2019-03-02T15:30:23.097Z,98047.11
2019-03-02T15:33:00.133Z,98050.54
2019-03-02T15:35:49.131Z,98047.30
2019-03-02T15:38:36.333Z,98048.89
2019-03-02T15:41:20.382Z,98052.12
2019-03-02T15:44:24.551Z,98057.27
2019-03-02T15:50:37.761Z,98056.38
2019-03-02T15:53:16.218Z,98055.97
2019-03-02T15:56:03.394Z,98054.78
2019-03-02T15:58:49.162Z,98049.06
2019-03-02T16:01:44.148Z,98053.34
2019-03-02T16:08:26.897Z,98055.55
2019-03-02T16:18:06.295Z,98055.05
2019-03-02T16:56:21.101Z,98038.20
2019-03-02T16:59:04.526Z,98037.11
2019-03-02T17:01:48.787Z,98040.29
2019-03-02T17:04:36.660Z,98037.17
2019-03-02T17:07:37.802Z,98044.11
2019-03-02T17:10:28.295Z,98040.55
2019-03-02T17:13:11.449Z,98043.53
2019-03-02T17:16:06.140Z,98044.14
2019-03-02T17:18:43.285Z,98044.56
2019-03-02T17:21:37.271Z,98038.24
2019-03-02T17:24:12.559Z,98044.19
2019-03-02T17:26:54.126Z,98050.69
2019-03-02T17:29:31.795Z,98046.92
2019-03-02T17:32:22.938Z,98048.27
2019-03-02T17:35:20.601Z,98062.27
2019-03-02T17:38:02.109Z,98055.95
2019-03-02T17:40:42.331Z,98057.19
2019-03-02T17:43:23.640Z,98053.11
2019-03-02T17:46:14.182Z,98058.34
2019-03-02T17:49:09.626Z,98062.66
2019-03-02T17:52:04.316Z,98059.21
2019-03-02T17:54:56.071Z,98063.38
2019-03-02T17:57:59.977Z,98064.07
2019-03-02T18:00:56.968Z,98072.95
2019-03-02T18:03:35.945Z,98081.92
2019-03-02T18:06:24.933Z,98093.48
2019-03-02T18:09:13.973Z,98093.75
2019-03-02T18:12:05.619Z,98094.33
2019-03-02T18:14:40.931Z,98102.51
2019-03-02T18:17:20.590Z,98106.24
2019-03-02T18:19:50.765Z,98106.44
2019-03-02T18:22:20.842Z,98106.59
2019-03-02T18:24:50.782Z,98106.23
2019-03-02T18:27:20.813Z,98110.97
2019-03-02T18:29:50.872Z,98112.80
2019-03-02T18:32:21.146Z,98122.45
2019-03-02T18:34:51.112Z,98119.78
2019-03-02T18:37:21.019Z,98110.27
2019-03-02T18:39:51.183Z,98107.19
2019-03-02T18:42:21.253Z,98114.72
2019-03-02T18:44:54.638Z,98113.64
2019-03-02T18:47:25.941Z,98111.40
2019-03-02T18:50:02.814Z,98117.67
2019-03-02T18:52:53.796Z,98135.39
2019-03-02T18:55:22.398Z,98144.94
2019-03-02T18:57:53.853Z,98140.75
2019-03-02T19:00:27.060Z,98147.98
2019-03-02T19:02:56.973Z,98149.72
2019-03-02T19:05:29.093Z,98150.53
2019-03-02T19:08:01.236Z,98147.94
2019-03-02T19:10:31.629Z,98146.83
2019-03-02T19:13:05.053Z,98161.98
2019-03-02T19:15:33.648Z,98157.34
2019-03-02T19:18:03.740Z,98159.07
2019-03-02T19:20:33.755Z,98162.05
2019-03-02T19:23:03.667Z,98163.80
2019-03-02T19:25:33.648Z,98165.98
2019-03-02T19:28:03.562Z,98176.80
2019-03-02T20:03:36.053Z,98174.63
2019-03-02T20:06:06.268Z,98171.30
2019-03-02T20:23:37.579Z,98178.14
2019-03-02T20:26:07.632Z,98170.86
2019-03-02T20:28:37.595Z,98176.14
2019-03-02T20:31:08.321Z,98182.47
2019-03-02T20:33:38.242Z,98183.06
2019-03-02T20:36:08.316Z,98177.77
2019-03-02T20:42:23.399Z,98180.14
2019-03-02T20:44:53.411Z,98182.19
2019-03-02T20:54:43.722Z,98185.77
2019-03-02T20:57:13.758Z,98192.50
2019-03-02T20:59:43.665Z,98190.45
2019-03-02T21:02:13.611Z,98197.80
2019-03-02T21:04:43.527Z,98201.08
2019-03-02T21:07:13.447Z,98205.52
2019-03-02T21:09:43.361Z,98213.01
2019-03-02T21:12:13.715Z,98209.66
2019-03-02T21:14:43.676Z,98205.03
2019-03-02T21:17:13.591Z,98198.90
2019-03-02T21:19:43.663Z,98199.38
2019-03-02T21:22:13.594Z,98203.27
2019-03-02T21:28:28.389Z,98202.02
2019-03-02T21:38:36.608Z,98205.62
2019-03-02T21:58:07.823Z,98213.83
2019-03-02T22:00:37.813Z,98212.38
2019-03-02T22:03:07.839Z,98215.40
2019-03-02T22:05:38.215Z,98214.39
2019-03-02T22:08:08.485Z,98214.73
2019-03-02T22:10:43.919Z,98210.59
2019-03-02T22:13:13.930Z,98223.23
2019-03-02T22:15:43.823Z,98219.42
2019-03-02T22:18:13.773Z,98220.20
2019-03-02T22:20:43.791Z,98225.09
2019-03-02T22:23:13.722Z,98226.02
2019-03-02T22:25:43.650Z,98232.41
2019-03-02T22:28:13.582Z,98245.68
2019-03-02T22:30:43.494Z,98239.38
2019-03-02T22:33:13.509Z,98245.69
2019-03-02T22:35:43.434Z,98240.31
2019-03-02T22:38:13.363Z,98237.77
2019-03-02T22:40:43.314Z,98248.85
2019-03-02T22:43:13.321Z,98242.95
2019-03-02T22:45:43.254Z,98242.91
2019-03-02T22:48:13.393Z,98241.05
2019-03-02T22:50:43.345Z,98238.66
2019-03-02T22:53:13.263Z,98233.25
2019-03-02T22:55:43.174Z,98237.19
2019-03-02T22:58:13.114Z,98233.55
2019-03-02T23:01:29.787Z,98228.13
2019-03-02T23:03:59.740Z,98218.30
2019-03-02T23:06:29.646Z,98225.00
2019-03-02T23:08:59.637Z,98220.61
2019-03-02T23:11:29.621Z,98215.52
2019-03-02T23:13:59.547Z,98220.80
2019-03-02T23:16:29.540Z,98217.09
2019-03-02T23:18:59.456Z,98218.02
2019-03-02T23:21:29.367Z,98218.95
2019-03-02T23:23:59.276Z,98227.25
2019-03-02T23:26:29.184Z,98218.31
2019-03-02T23:28:59.101Z,98224.46
2019-03-02T23:31:29.076Z,98224.52
2019-03-02T23:33:58.992Z,98224.06
2019-03-02T23:36:28.898Z,98227.50
2019-03-02T23:38:58.835Z,98228.45
2019-03-02T23:41:28.827Z,98230.02
2019-03-02T23:43:58.999Z,98226.52
2019-03-02T23:46:29.017Z,98227.30
2019-03-02T23:48:58.935Z,98225.39
2019-03-02T23:51:28.912Z,98220.16
2019-03-02T23:53:58.921Z,98219.88
2019-03-02T23:56:28.906Z,98225.59
2019-03-02T23:58:58.833Z,98218.51
